Time;durP1;ratioP1;P1;durP2;ratioP2;P2;SDS_P1;SDS_P2;PMS_P1;PMS_P2;Temp;Humidity;BMP_temperature;BMP_pressure;BME280_temperature;BME280_humidity;BME280_pressure;Samples;Min_cycle;Max_cycle;Signal;HPM_P1;HPM_P2
2022/04/24 00:00:00;;;;;;;2.00;1.90;;;20.50;46.90;;;;;;5070072;28;43538;-60
2022/04/24 00:02:30;;;;;;;1.92;1.83;;;20.50;46.80;;;;;;5070472;28;44049;-60
2022/04/24 00:04:58;;;;;;;2.00;1.90;;;20.50;46.80;;;;;;5073101;28;44007;-61
2022/04/24 00:07:25;;;;;;;1.90;1.80;;;20.40;46.80;;;;;;5070572;28;43487;-61
2022/04/24 00:09:52;;;;;;;2.08;1.88;;;20.40;46.80;;;;;;5068988;28;43456;-61
2022/04/24 00:12:19;;;;;;;2.10;1.90;;;20.40;46.80;;;;;;5072209;28;45213;-60
2022/04/24 00:14:48;;;;;;;2.22;2.03;;;20.40;46.90;;;;;;5073078;27;43441;-61
2022/04/24 00:17:16;;;;;;;2.08;1.98;;;20.40;46.80;;;;;;5069644;28;43578;-60
2022/04/24 00:19:44;;;;;;;2.10;1.90;;;20.40;46.90;;;;;;5068509;28;43569;-61
2022/04/24 00:22:11;;;;;;;2.13;2.03;;;20.40;46.90;;;;;;5071443;28;44968;-61
2022/04/24 00:24:39;;;;;;;1.95;1.85;;;20.40;46.80;;;;;;5072233;27;44044;-60
2022/04/24 00:27:08;;;;;;;2.05;1.90;;;20.40;46.80;;;;;;5069648;28;43497;-62
2022/04/24 00:29:35;;;;;;;2.10;2.00;;;20.40;46.80;;;;;;5066532;28;43500;-60
2022/04/24 00:32:03;;;;;;;2.00;1.90;;;20.30;47.40;;;;;;5071181;28;45218;-60
2022/04/24 00:34:31;;;;;;;2.05;1.95;;;20.30;46.80;;;;;;5069721;28;43471;-60
2022/04/24 00:36:59;;;;;;;2.10;2.00;;;20.30;46.80;;;;;;5070001;28;43485;-61
2022/04/24 00:39:26;;;;;;;2.08;1.98;;;20.30;46.80;;;;;;5066034;28;43482;-61
2022/04/24 00:41:53;;;;;;;2.10;2.00;;;20.30;46.80;;;;;;5074987;28;44087;-61
2022/04/24 00:44:21;;;;;;;2.03;1.83;;;20.30;46.90;;;;;;5073087;27;43601;-60
2022/04/24 00:47:16;;;;;;;1.95;1.85;;;20.30;46.80;;;;;;5067326;28;43414;-60
2022/04/24 00:49:45;;;;;;;1.85;1.75;;;20.30;46.80;;;;;;5072398;28;43527;-60
2022/04/24 00:52:13;;;;;;;2.10;2.00;;;20.30;46.80;;;;;;5073329;28;43999;-60
2022/04/24 00:54:41;;;;;;;2.03;1.92;;;20.30;46.80;;;;;;5073099;28;43526;-61
2022/04/24 00:57:12;;;;;;;2.05;1.70;;;20.20;46.80;;;;;;5070041;28;43529;-61
2022/04/24 00:59:39;;;;;;;2.15;2.00;;;20.20;46.80;;;;;;5072079;28;44056;-60
2022/04/24 01:02:08;;;;;;;2.20;2.00;;;20.20;46.80;;;;;;5072081;27;44923;-60
2022/04/24 01:04:36;;;;;;;1.95;1.85;;;20.20;46.80;;;;;;5072897;28;43416;-61
2022/04/24 01:07:06;;;;;;;2.10;2.00;;;20.20;46.80;;;;;;5071338;28;43410;-61
2022/04/24 01:09:35;;;;;;;1.88;1.75;;;20.20;46.90;;;;;;5074724;28;43591;-60
2022/04/24 01:12:04;;;;;;;1.90;1.80;;;20.20;46.90;;;;;;5073690;27;43761;-61
2022/04/24 01:14:32;;;;;;;1.90;1.80;;;20.20;46.80;;;;;;5072614;28;43828;-61
2022/04/24 01:17:02;;;;;;;2.00;1.90;;;20.20;46.90;;;;;;5069743;28;43506;-60
2022/04/24 01:19:29;;;;;;;1.98;1.88;;;20.20;46.90;;;;;;5074338;28;43534;-61
2022/04/24 01:21:58;;;;;;;2.00;1.90;;;20.10;46.90;;;;;;5073344;27;43940;-60
2022/04/24 01:24:29;;;;;;;2.47;2.00;;;20.10;46.80;;;;;;5071960;28;43933;-60
2022/04/24 01:26:57;;;;;;;2.33;2.22;;;20.10;46.90;;;;;;5072056;28;43484;-61
2022/04/24 01:29:24;;;;;;;2.13;2.03;;;20.10;47.60;;;;;;5075611;28;43653;-60
2022/04/24 01:31:52;;;;;;;1.90;1.80;;;20.10;46.80;;;;;;5072391;27;44107;-60
2022/04/24 01:34:20;;;;;;;1.90;1.80;;;20.10;46.90;;;;;;5071066;28;43977;-60
2022/04/24 01:36:48;;;;;;;2.40;1.90;;;20.10;46.90;;;;;;5072873;28;43516;-61
2022/04/24 01:39:15;;;;;;;2.00;1.90;;;20.10;46.90;;;;;;5075817;28;43557;-59
2022/04/24 01:41:44;;;;;;;2.35;2.15;;;20.10;46.80;;;;;;5069519;28;44012;-60
2022/04/24 01:44:12;;;;;;;2.25;1.95;;;20.10;46.90;;;;;;5070792;28;43519;-60
2022/04/24 01:46:40;;;;;;;2.08;1.98;;;20.00;46.80;;;;;;5075521;28;43533;-61
2022/04/24 01:49:07;;;;;;;1.75;1.65;;;20.00;46.80;;;;;;5076092;28;43552;-60
2022/04/24 01:51:35;;;;;;;2.03;1.92;;;20.00;46.90;;;;;;5069668;28;44995;-60
2022/04/24 01:54:02;;;;;;;2.00;1.90;;;20.00;46.80;;;;;;5067923;28;43553;-61
2022/04/24 01:56:29;;;;;;;2.30;2.20;;;20.00;46.90;;;;;;5074767;28;43494;-60
2022/04/24 01:58:56;;;;;;;2.05;1.95;;;20.00;46.90;;;;;;5075462;27;43378;-60
2022/04/24 02:01:24;;;;;;;2.58;1.90;;;20.00;46.80;;;;;;5066378;28;45040;-61
2022/04/24 02:03:52;;;;;;;1.90;1.80;;;20.00;46.80;;;;;;5068340;28;44069;-61
2022/04/24 02:06:19;;;;;;;1.80;1.70;;;19.90;46.80;;;;;;5074763;28;43503;-60
2022/04/24 02:08:46;;;;;;;2.10;2.00;;;20.00;46.90;;;;;;5073592;28;43482;-61
2022/04/24 02:11:14;;;;;;;1.95;1.85;;;20.00;46.90;;;;;;5069599;28;44877;-60
2022/04/24 02:13:41;;;;;;;2.28;2.17;;;19.90;46.90;;;;;;5071854;28;43498;-61
2022/04/24 02:16:08;;;;;;;2.17;1.98;;;19.90;46.80;;;;;;5074802;28;43516;-61
2022/04/24 02:18:36;;;;;;;2.08;1.98;;;19.90;46.80;;;;;;5075392;27;43535;-60
2022/04/24 02:21:03;;;;;;;2.20;2.00;;;19.90;46.80;;;;;;5063409;28;43983;-61
2022/04/24 02:23:30;;;;;;;2.22;2.10;;;19.90;46.80;;;;;;5071742;28;43469;-61
2022/04/24 02:25:57;;;;;;;2.03;1.80;;;19.90;46.80;;;;;;5073670;28;43540;-60
2022/04/24 02:28:24;;;;;;;2.03;1.92;;;19.90;46.80;;;;;;5071612;28;43474;-60
2022/04/24 02:30:52;;;;;;;2.17;1.90;;;19.80;46.80;;;;;;5071616;28;44177;-61
2022/04/24 02:33:19;;;;;;;2.03;1.92;;;19.90;46.80;;;;;;5071305;28;43372;-60
2022/04/24 02:35:46;;;;;;;2.20;2.10;;;19.80;46.90;;;;;;5073897;28;43468;-60
2022/04/24 02:38:14;;;;;;;1.88;1.77;;;19.80;46.90;;;;;;5069865;27;43553;-60
2022/04/24 02:40:41;;;;;;;2.10;1.88;;;19.80;47.00;;;;;;5071112;28;44882;-61
2022/04/24 02:43:08;;;;;;;2.00;1.90;;;19.80;47.00;;;;;;5071363;28;43487;-61
2022/04/24 02:45:36;;;;;;;2.17;2.08;;;19.80;46.90;;;;;;5071305;28;43475;-61
2022/04/24 02:48:04;;;;;;;1.90;1.80;;;19.80;47.00;;;;;;5067994;28;43569;-61
2022/04/24 02:50:31;;;;;;;2.20;2.10;;;19.80;47.10;;;;;;5071562;28;45312;-60
2022/04/24 02:52:58;;;;;;;1.90;1.80;;;19.80;47.00;;;;;;5071112;28;43494;-60
2022/04/24 02:55:26;;;;;;;2.22;2.10;;;19.70;47.00;;;;;;5073373;28;43498;-61
2022/04/24 02:57:54;;;;;;;2.10;2.00;;;19.80;47.00;;;;;;5070650;27;43537;-60
2022/04/24 03:00:24;;;;;;;2.50;2.40;;;19.70;47.00;;;;;;5071426;27;44756;-61
2022/04/24 03:02:53;;;;;;;;;;;19.70;46.90;;;;;;5068620;28;44127;-60
2022/04/24 03:05:22;;;;;;;2.13;2.03;;;19.70;47.00;;;;;;5073459;27;43577;-60
2022/04/24 03:07:49;;;;;;;1.90;1.80;;;19.70;47.00;;;;;;5068836;28;43498;-61
2022/04/24 03:10:17;;;;;;;1.80;1.70;;;19.70;47.10;;;;;;5069120;28;44983;-59
2022/04/24 03:12:45;;;;;;;2.10;2.00;;;19.60;47.00;;;;;;5071031;28;43576;-60
2022/04/24 03:15:14;;;;;;;1.95;1.85;;;19.70;47.00;;;;;;5074061;28;43446;-60
2022/04/24 03:17:42;;;;;;;2.00;1.90;;;19.60;47.00;;;;;;5071331;27;43552;-60
2022/04/24 03:20:12;;;;;;;2.05;1.95;;;19.60;47.00;;;;;;5068201;28;44963;-60
2022/04/24 03:22:40;;;;;;;2.03;1.92;;;19.60;47.00;;;;;;5070414;28;43535;-61
2022/04/24 03:25:09;;;;;;;2.13;2.03;;;19.60;46.90;;;;;;5074412;28;43455;-61
2022/04/24 03:27:38;;;;;;;2.00;1.90;;;19.60;46.90;;;;;;5069104;28;43620;-60
2022/04/24 03:30:06;;;;;;;1.83;1.73;;;19.60;46.90;;;;;;5070624;28;46275;-60
2022/04/24 03:32:34;;;;;;;1.80;1.70;;;19.60;46.90;;;;;;5070774;28;43506;-60
2022/04/24 03:35:03;;;;;;;2.10;1.90;;;19.60;46.90;;;;;;5074025;28;43601;-61
2022/04/24 03:37:30;;;;;;;2.00;1.90;;;19.60;46.90;;;;;;5070181;27;43451;-61
2022/04/24 03:39:58;;;;;;;1.88;1.77;;;19.60;46.90;;;;;;5070307;28;44691;-61
2022/04/24 03:42:26;;;;;;;2.03;1.90;;;19.60;47.00;;;;;;5065940;28;44114;-60
2022/04/24 03:44:54;;;;;;;1.85;1.75;;;19.60;47.00;;;;;;5072898;28;43446;-60
2022/04/24 03:47:23;;;;;;;1.80;1.70;;;19.50;47.60;;;;;;5072815;27;43604;-60
2022/04/24 03:49:51;;;;;;;1.85;1.75;;;19.50;46.90;;;;;;5070396;28;45012;-60
2022/04/24 03:52:18;;;;;;;1.70;1.60;;;19.50;47.00;;;;;;5069094;28;43755;-61
2022/04/24 03:54:46;;;;;;;1.90;1.80;;;19.50;47.00;;;;;;5070807;28;43450;-61
2022/04/24 03:57:13;;;;;;;1.80;1.70;;;19.50;47.00;;;;;;5070677;28;43517;-60
2022/04/24 03:59:41;;;;;;;2.00;1.90;;;19.50;46.90;;;;;;5070439;28;44781;-60
2022/04/24 04:02:08;;;;;;;2.00;1.90;;;19.50;46.90;;;;;;5068153;28;43498;-60
2022/04/24 04:04:35;;;;;;;1.90;1.80;;;19.50;46.90;;;;;;5071727;27;43408;-60
2022/04/24 04:07:05;;;;;;;1.75;1.65;;;19.50;46.90;;;;;;5071507;27;43480;-60
2022/04/24 04:09:32;;;;;;;2.05;1.95;;;19.50;46.90;;;;;;5069356;28;44429;-60
2022/04/24 04:12:00;;;;;;;1.80;1.70;;;19.50;46.90;;;;;;5070005;28;43965;-61
2022/04/24 04:14:28;;;;;;;2.00;1.77;;;19.50;47.00;;;;;;5071524;28;43474;-60
2022/04/24 04:16:55;;;;;;;1.80;1.70;;;19.40;47.00;;;;;;5070008;27;43529;-61
2022/04/24 04:19:22;;;;;;;1.98;1.88;;;19.40;47.00;;;;;;5068945;28;43787;-60
2022/04/24 04:21:50;;;;;;;1.80;1.70;;;19.40;47.00;;;;;;5069072;28;43780;-60
2022/04/24 04:24:17;;;;;;;1.85;1.75;;;19.50;47.00;;;;;;5070737;28;43505;-60
2022/04/24 04:26:45;;;;;;;1.70;1.60;;;19.40;47.00;;;;;;5070674;28;43533;-60
2022/04/24 04:29:12;;;;;;;1.85;1.75;;;19.40;47.00;;;;;;5068130;28;44766;-60
2022/04/24 04:31:39;;;;;;;1.98;1.88;;;19.40;47.10;;;;;;5068804;28;43621;-61
2022/04/24 04:34:06;;;;;;;1.90;1.80;;;19.40;47.00;;;;;;5073704;28;43446;-61
2022/04/24 04:36:34;;;;;;;1.98;1.88;;;19.40;47.10;;;;;;5070755;27;43588;-61
2022/04/24 04:39:01;;;;;;;2.60;1.90;;;19.40;47.10;;;;;;5061654;28;43986;-59
2022/04/24 04:41:28;;;;;;;1.92;1.70;;;19.40;47.10;;;;;;5065975;28;43987;-60
2022/04/24 04:43:55;;;;;;;1.90;1.80;;;19.40;47.10;;;;;;5070560;28;43478;-61
2022/04/24 04:46:23;;;;;;;1.80;1.70;;;19.40;47.10;;;;;;5065685;27;43628;-60
2022/04/24 04:48:50;;;;;;;1.88;1.77;;;19.30;47.00;;;;;;5065502;28;43894;-60
2022/04/24 04:51:17;;;;;;;2.10;1.90;;;19.30;47.10;;;;;;5070239;28;44037;-61
2022/04/24 04:53:45;;;;;;;1.95;1.85;;;19.30;47.10;;;;;;5073356;28;43442;-60
2022/04/24 04:56:13;;;;;;;1.88;1.77;;;19.30;47.20;;;;;;5068971;27;43473;-60
2022/04/24 04:58:40;;;;;;;1.77;1.67;;;19.30;47.20;;;;;;5067570;28;43885;-59
2022/04/24 05:01:07;;;;;;;1.90;1.80;;;19.30;47.30;;;;;;5070182;28;43793;-60
2022/04/24 05:03:35;;;;;;;2.38;1.88;;;19.20;47.20;;;;;;5070872;27;43917;-61
2022/04/24 05:06:02;;;;;;;2.00;1.90;;;19.20;47.20;;;;;;5070087;27;43925;-61
2022/04/24 05:08:30;;;;;;;1.70;1.60;;;19.20;47.20;;;;;;5066211;28;44025;-60
2022/04/24 05:10:57;;;;;;;1.85;1.75;;;19.20;47.20;;;;;;5069281;28;43549;-60
2022/04/24 05:13:24;;;;;;;1.67;1.58;;;19.20;47.30;;;;;;5073404;27;43471;-60
2022/04/24 05:15:52;;;;;;;1.95;1.67;;;19.20;47.20;;;;;;5069072;27;44019;-60
2022/04/24 05:18:19;;;;;;;2.13;1.92;;;19.20;47.40;;;;;;5068945;28;44050;-61
2022/04/24 05:20:47;;;;;;;1.63;1.52;;;19.20;47.40;;;;;;5069663;28;43517;-60
2022/04/24 05:23:14;;;;;;;1.83;1.73;;;19.20;47.40;;;;;;5072907;27;43473;-60
2022/04/24 05:25:41;;;;;;;2.08;1.90;;;19.10;47.40;;;;;;5066428;28;43990;-61
2022/04/24 05:28:09;;;;;;;1.77;1.60;;;19.10;47.50;;;;;;5069306;27;44898;-60
2022/04/24 05:30:36;;;;;;;1.63;1.52;;;19.10;47.40;;;;;;5072655;28;44122;-60
2022/04/24 05:33:04;;;;;;;1.88;1.73;;;19.10;47.50;;;;;;5075846;28;43381;-60
2022/04/24 05:35:31;;;;;;;1.67;1.58;;;19.10;47.60;;;;;;5070369;27;43511;-61
2022/04/24 05:37:58;;;;;;;1.65;1.55;;;19.00;47.50;;;;;;5070041;28;44223;-60
2022/04/24 05:40:26;;;;;;;1.80;1.67;;;19.10;47.60;;;;;;5069086;28;43757;-60
2022/04/24 05:42:54;;;;;;;1.70;1.60;;;19.00;47.50;;;;;;5073979;28;43491;-60
2022/04/24 05:45:24;;;;;;;1.70;1.60;;;19.10;47.60;;;;;;5073088;27;43612;-61
2022/04/24 05:47:56;;;;;;;1.75;1.65;;;19.10;47.60;;;;;;5073383;28;44684;-60
2022/04/24 05:50:24;;;;;;;1.70;1.60;;;19.10;47.50;;;;;;5073428;28;43479;-60
2022/04/24 05:52:57;;;;;;;2.00;1.70;;;19.00;47.40;;;;;;5071739;27;43509;-60
2022/04/24 05:55:25;;;;;;;1.75;1.65;;;19.00;47.50;;;;;;5066224;28;43595;-60
2022/04/24 05:57:53;;;;;;;2.20;2.00;;;19.00;47.60;;;;;;5071479;28;45001;-60
2022/04/24 06:00:22;;;;;;;1.52;1.42;;;19.00;47.70;;;;;;5074077;28;43768;-60
2022/04/24 06:02:51;;;;;;;1.50;1.40;;;19.00;47.80;;;;;;5071861;27;43482;-60
2022/04/24 06:05:20;;;;;;;2.13;1.63;;;18.90;47.80;;;;;;5071285;28;43462;-60
2022/04/24 06:07:47;;;;;;;2.05;1.65;;;18.90;47.70;;;;;;5071334;28;45105;-60
2022/04/24 06:10:15;;;;;;;1.58;1.48;;;18.90;47.60;;;;;;5072459;28;43451;-61
2022/04/24 06:12:45;;;;;;;1.67;1.58;;;18.90;47.60;;;;;;5074419;28;43472;-60
2022/04/24 06:15:15;;;;;;;1.83;1.73;;;18.90;47.60;;;;;;5071836;28;43472;-60
2022/04/24 06:17:46;;;;;;;1.93;1.63;;;18.90;47.60;;;;;;5074008;28;45092;-60
2022/04/24 06:20:14;;;;;;;2.88;1.73;;;18.90;47.70;;;;;;5064373;28;44057;-60
2022/04/24 06:22:52;;;;;;;1.58;1.48;;;18.90;47.70;;;;;;5073461;27;43744;-61
2022/04/24 06:25:21;;;;;;;2.05;1.33;;;18.90;47.70;;;;;;5066440;28;43431;-60
2022/04/24 06:27:50;;;;;;;1.60;1.50;;;18.90;47.70;;;;;;5067524;28;44049;-60
2022/04/24 06:30:20;;;;;;;1.40;1.30;;;18.90;48.40;;;;;;5068490;28;44341;-62
2022/04/24 06:32:47;;;;;;;1.48;1.38;;;18.90;47.70;;;;;;5067503;28;43372;-61
2022/04/24 06:35:16;;;;;;;1.60;1.50;;;18.90;47.60;;;;;;5071153;28;43538;-60
2022/04/24 06:37:49;;;;;;;1.38;1.27;;;19.00;47.70;;;;;;5068017;28;43993;-62
2022/04/24 06:40:19;;;;;;;1.45;1.30;;;18.90;47.60;;;;;;5063839;28;44118;-61
2022/04/24 06:43:07;;;;;;;1.45;1.35;;;18.90;47.60;;;;;;5065137;28;43441;-61
2022/04/24 06:45:39;;;;;;;1.50;1.40;;;19.00;47.70;;;;;;5052636;28;43537;-61
2022/04/24 06:48:11;;;;;;;1.60;1.50;;;18.90;47.70;;;;;;5067111;28;44070;-61
2022/04/24 06:50:41;;;;;;;1.48;1.40;;;18.90;47.70;;;;;;5066273;28;43461;-61
2022/04/24 06:53:13;;;;;;;1.73;1.63;;;18.90;47.80;;;;;;5067714;28;43470;-61
2022/04/24 06:55:42;;;;;;;3.38;2.10;;;18.90;47.70;;;;;;5063879;28;43586;-61
2022/04/24 06:58:11;;;;;;;3.03;2.03;;;18.90;47.90;;;;;;5064159;28;43987;-59
2022/04/24 07:00:44;;;;;;;2.08;1.98;;;19.00;47.90;;;;;;5064562;28;43440;-60
2022/04/24 07:03:31;;;;;;;2.10;1.92;;;19.00;48.00;;;;;;5067377;28;44102;-61
2022/04/24 07:06:00;;;;;;;2.25;1.80;;;19.10;48.00;;;;;;5067362;28;43662;-61
2022/04/24 07:08:29;;;;;;;2.72;2.10;;;19.20;47.90;;;;;;5064647;28;43927;-61
2022/04/24 07:10:57;;;;;;;3.47;2.05;;;19.40;47.90;;;;;;5067637;28;43621;-61
2022/04/24 07:13:25;;;;;;;2.22;2.13;;;19.50;47.60;;;;;;5071288;28;43458;-61
2022/04/24 07:15:52;;;;;;;2.80;2.10;;;19.60;47.60;;;;;;5067836;28;44275;-60
2022/04/24 07:18:20;;;;;;;1.88;1.70;;;19.80;47.30;;;;;;5070311;28;44973;-62
2022/04/24 07:20:48;;;;;;;2.22;2.08;;;19.90;47.10;;;;;;5071706;28;43429;-62
2022/04/24 07:23:15;;;;;;;2.25;1.70;;;20.00;46.90;;;;;;5073189;27;43400;-61
2022/04/24 07:25:44;;;;;;;2.70;1.88;;;20.10;46.90;;;;;;5068116;28;43609;-60
2022/04/24 07:28:16;;;;;;;2.40;2.10;;;20.20;46.80;;;;;;5069598;28;46159;-61
2022/04/24 07:30:43;;;;;;;1.83;1.73;;;20.20;46.60;;;;;;5072060;28;44072;-61
2022/04/24 07:33:11;;;;;;;1.98;1.88;;;20.30;46.60;;;;;;5073523;27;43460;-61
2022/04/24 07:35:40;;;;;;;2.17;1.90;;;20.40;46.50;;;;;;5066855;27;43490;-60
2022/04/24 07:38:08;;;;;;;2.40;1.73;;;20.50;46.40;;;;;;5069636;28;44345;-61
2022/04/24 07:40:37;;;;;;;2.50;1.58;;;20.60;46.30;;;;;;5071910;28;43601;-62
2022/04/24 07:43:09;;;;;;;1.80;1.70;;;20.70;46.10;;;;;;5072483;27;43456;-60
2022/04/24 07:45:36;;;;;;;1.65;1.55;;;20.70;46.00;;;;;;5076530;27;43558;-59
2022/04/24 07:48:06;;;;;;;2.10;1.77;;;20.80;46.00;;;;;;5071464;28;43909;-60
2022/04/24 07:50:38;;;;;;;1.50;1.40;;;20.90;45.90;;;;;;5095475;27;43517;-60
2022/04/24 07:53:07;;;;;;;3.28;1.60;;;21.00;46.00;;;;;;5060084;28;43504;-60
2022/04/24 07:55:35;;;;;;;3.08;1.70;;;21.10;46.10;;;;;;5072188;28;43579;-60
2022/04/24 07:58:02;;;;;;;1.52;1.30;;;21.20;46.30;;;;;;5062558;28;43896;-60
2022/04/24 08:00:32;;;;;;;2.78;1.42;;;21.30;46.10;;;;;;5060298;28;43963;-60
2022/04/24 08:03:09;;;;;;;1.50;1.30;;;21.50;47.00;;;;;;5078598;27;43616;-61
2022/04/24 08:05:40;;;;;;;1.77;1.40;;;21.50;46.70;;;;;;5069620;28;43646;-61
2022/04/24 08:08:14;;;;;;;1.60;1.45;;;21.70;45.80;;;;;;5069500;28;43888;-61
2022/04/24 08:10:47;;;;;;;1.52;1.42;;;21.90;45.80;;;;;;5066662;28;44926;-61
2022/04/24 08:13:14;;;;;;;1.58;1.48;;;22.00;45.40;;;;;;5068592;27;43520;-61
2022/04/24 08:15:43;;;;;;;2.58;1.30;;;22.20;45.20;;;;;;5069294;28;43694;-60
2022/04/24 08:18:11;;;;;;;1.80;1.45;;;22.30;45.10;;;;;;5070619;28;44772;-61
2022/04/24 08:20:39;;;;;;;2.20;1.30;;;22.40;44.90;;;;;;5069203;28;43876;-61
2022/04/24 08:23:08;;;;;;;1.42;1.33;;;22.50;44.80;;;;;;5071452;28;43510;-60
2022/04/24 08:25:37;;;;;;;1.30;1.25;;;22.50;44.90;;;;;;5069259;28;44059;-60
2022/04/24 08:28:06;;;;;;;1.67;1.58;;;22.60;45.10;;;;;;5068525;28;44180;-61
2022/04/24 08:30:45;;;;;;;2.25;1.30;;;22.60;44.90;;;;;;5069436;28;43783;-61
2022/04/24 08:33:15;;;;;;;1.55;1.45;;;22.70;44.80;;;;;;5066769;28;43490;-60
2022/04/24 08:35:43;;;;;;;2.05;1.33;;;22.90;44.60;;;;;;5069226;28;43678;-61
2022/04/24 08:38:10;;;;;;;2.35;1.50;;;23.10;44.50;;;;;;5070889;27;44827;-61
2022/04/24 08:40:38;;;;;;;6.97;1.92;;;23.20;44.90;;;;;;5068328;27;43811;-61
2022/04/24 08:43:05;;;;;;;2.35;1.77;;;23.40;44.40;;;;;;5069238;28;43465;-61
2022/04/24 08:45:33;;;;;;;6.60;1.90;;;23.40;44.00;;;;;;5069794;28;43556;-59
2022/04/24 08:48:04;;;;;;;2.88;1.88;;;23.60;44.20;;;;;;5067771;28;43991;-61
2022/04/24 08:50:32;;;;;;;2.38;1.70;;;23.70;44.00;;;;;;5067750;28;43550;-61
2022/04/24 08:53:00;;;;;;;4.80;1.67;;;23.90;43.90;;;;;;5068731;27;43534;-60
2022/04/24 08:55:30;;;;;;;2.10;1.30;;;24.00;43.80;;;;;;5067603;28;43677;-61
2022/04/24 08:57:58;;;;;;;3.72;1.65;;;24.10;43.50;;;;;;5068261;28;44716;-57
2022/04/24 09:00:27;;;;;;;2.35;1.40;;;24.30;43.40;;;;;;5065230;27;43509;-59
2022/04/24 09:02:59;;;;;;;2.63;1.20;;;24.30;43.30;;;;;;5059236;28;43578;-59
2022/04/24 09:05:30;;;;;;;5.70;2.05;;;24.40;43.00;;;;;;5069617;28;43523;-59
2022/04/24 09:08:09;;;;;;;2.20;1.17;;;24.40;43.10;;;;;;5108782;27;44244;-57
2022/04/24 09:10:58;;;;;;;1.67;1.20;;;24.40;43.00;;;;;;5071315;28;43930;-58
2022/04/24 09:13:30;;;;;;;2.45;1.63;;;24.30;43.00;;;;;;5073387;28;43552;-58
2022/04/24 09:15:59;;;;;;;3.10;1.30;;;24.30;43.00;;;;;;5071457;28;43464;-59
2022/04/24 09:18:37;;;;;;;2.25;1.30;;;24.30;43.40;;;;;;5070306;28;44031;-58
2022/04/24 09:21:05;;;;;;;3.38;1.52;;;24.30;43.20;;;;;;5075581;28;43422;-59
2022/04/24 09:23:39;;;;;;;1.38;1.20;;;24.20;43.20;;;;;;5070299;28;43597;-59
2022/04/24 09:26:11;;;;;;;3.00;1.20;;;24.20;43.40;;;;;;5077834;28;43526;-59
2022/04/24 09:28:40;;;;;;;1.13;1.10;;;24.10;43.50;;;;;;5069971;28;44903;-58
2022/04/24 09:31:08;;;;;;;2.05;1.50;;;24.10;43.50;;;;;;5073983;28;43477;-59
2022/04/24 09:33:42;;;;;;;1.25;1.15;;;24.10;43.70;;;;;;5073860;28;44107;-59
2022/04/24 09:36:13;;;;;;;1.63;1.13;;;24.10;43.70;;;;;;5073048;27;43584;-59
2022/04/24 09:38:44;;;;;;;1.70;1.40;;;24.00;43.80;;;;;;5073415;28;44682;-58
2022/04/24 09:41:22;;;;;;;3.00;1.20;;;23.90;43.40;;;;;;5088726;27;43936;-57
2022/04/24 09:43:50;;;;;;;2.90;1.23;;;23.90;43.50;;;;;;5073958;28;43437;-58
2022/04/24 09:46:29;;;;;;;1.38;1.20;;;23.80;43.60;;;;;;5066988;28;43524;-58
2022/04/24 09:49:02;;;;;;;3.15;1.20;;;23.70;43.40;;;;;;5075636;28;45001;-58
2022/04/24 09:51:29;;;;;;;1.88;1.13;;;23.70;43.50;;;;;;5072153;27;43873;-58
2022/04/24 09:54:02;;;;;;;2.58;1.30;;;23.60;43.90;;;;;;5067416;28;43597;-57
2022/04/24 09:56:30;;;;;;;2.63;1.33;;;23.60;43.90;;;;;;5059739;28;43660;-58
2022/04/24 09:58:57;;;;;;;1.92;1.30;;;23.50;44.00;;;;;;5065033;28;44202;-60
2022/04/24 10:01:26;;;;;;;3.30;1.35;;;23.50;43.90;;;;;;5070332;28;44050;-61
2022/04/24 10:03:55;;;;;;;3.15;1.40;;;23.40;43.80;;;;;;5078911;27;43510;-60
2022/04/24 10:06:23;;;;;;;1.30;1.20;;;23.40;44.40;;;;;;5055534;28;43708;-57
2022/04/24 10:08:51;;;;;;;1.33;1.10;;;23.40;44.30;;;;;;5066832;28;44780;-58
2022/04/24 10:11:20;;;;;;;2.53;1.40;;;23.30;44.30;;;;;;5072069;27;43533;-58
2022/04/24 10:13:50;;;;;;;2.28;1.30;;;23.20;44.50;;;;;;5073638;28;43456;-58
2022/04/24 10:16:42;;;;;;;2.88;1.38;;;23.20;44.30;;;;;;5069239;28;43621;-59
2022/04/24 10:19:28;;;;;;;3.17;1.42;;;23.10;44.30;;;;;;5069382;28;44950;-58
2022/04/24 10:22:04;;;;;;;2.25;0.93;;;23.10;44.30;;;;;;5073581;28;43456;-59
2022/04/24 10:24:41;;;;;;;2.40;1.10;;;23.10;44.70;;;;;;5072606;28;43533;-57
2022/04/24 10:27:11;;;;;;;1.33;1.20;;;23.10;44.60;;;;;;5069823;28;43570;-57
2022/04/24 10:30:00;;;;;;;2.15;1.50;;;23.00;44.80;;;;;;5068224;28;45016;-58
2022/04/24 10:32:30;;;;;;;2.10;1.63;;;23.00;44.90;;;;;;5068561;28;44298;-58
2022/04/24 10:35:01;;;;;;;;;;;23.00;44.90;;;;;;5072816;28;43457;-59
2022/04/24 10:37:30;;;;;;;1.70;1.40;;;23.00;45.10;;;;;;5069370;28;43533;-58
2022/04/24 10:40:00;;;;;;;3.22;1.55;;;22.90;45.10;;;;;;5071780;28;44937;-58
2022/04/24 10:42:32;;;;;;;1.35;1.23;;;22.90;45.00;;;;;;5064879;28;43450;-61
2022/04/24 10:45:10;;;;;;;1.63;1.30;;;22.90;45.00;;;;;;5083934;27;43497;-60
2022/04/24 10:47:55;;;;;;;1.17;1.13;;;22.80;45.00;;;;;;5067934;28;43547;-59
2022/04/24 10:50:23;;;;;;;2.10;1.60;;;22.80;45.00;;;;;;5075330;28;45067;-59
2022/04/24 10:52:54;;;;;;;1.92;1.40;;;22.80;45.10;;;;;;5073538;28;44032;-58
2022/04/24 10:55:26;;;;;;;2.85;2.22;;;22.80;45.20;;;;;;5067534;28;43505;-59
2022/04/24 10:58:00;;;;;;;2.15;1.50;;;22.80;45.10;;;;;;5069798;27;43493;-58
2022/04/24 11:00:34;;;;;;;1.55;1.40;;;22.80;45.20;;;;;;5069111;28;44319;-58
2022/04/24 11:03:16;;;;;;;1.45;1.30;;;22.80;45.20;;;;;;5069432;28;43924;-59
2022/04/24 11:05:46;;;;;;;1.55;1.45;;;22.80;45.10;;;;;;5067327;28;43568;-58
2022/04/24 11:08:20;;;;;;;1.50;1.40;;;22.80;45.10;;;;;;5064019;28;43470;-59
2022/04/24 11:10:49;;;;;;;1.45;1.35;;;22.80;45.10;;;;;;5071560;28;44804;-59
2022/04/24 11:13:18;;;;;;;2.05;1.40;;;22.80;45.10;;;;;;5071192;28;43498;-59
2022/04/24 11:15:49;;;;;;;1.60;1.45;;;22.80;45.10;;;;;;5064094;28;43541;-58
2022/04/24 11:18:27;;;;;;;2.65;1.75;;;22.80;45.10;;;;;;5076625;27;43610;-59
2022/04/24 11:21:01;;;;;;;1.40;1.30;;;22.80;45.10;;;;;;5073564;27;44998;-59
2022/04/24 11:23:30;;;;;;;1.58;1.42;;;22.80;45.10;;;;;;5067185;28;43504;-59
2022/04/24 11:25:59;;;;;;;1.50;1.40;;;22.80;45.10;;;;;;5064131;27;43489;-59
2022/04/24 11:28:40;;;;;;;2.78;1.30;;;22.80;45.10;;;;;;5074687;28;43548;-58
2022/04/24 11:31:19;;;;;;;2.17;1.63;;;22.80;45.10;;;;;;5070924;28;43931;-59
2022/04/24 11:33:57;;;;;;;1.83;1.73;;;22.80;45.10;;;;;;5070553;27;43845;-58
2022/04/24 11:36:33;;;;;;;2.40;1.30;;;22.80;45.10;;;;;;5064798;28;43561;-58
2022/04/24 11:39:01;;;;;;;1.38;1.27;;;22.80;45.10;;;;;;5072104;28;43465;-58
2022/04/24 11:41:30;;;;;;;1.77;1.60;;;22.80;45.00;;;;;;5063764;28;44069;-58
2022/04/24 11:50:14;;;;;;;1.60;1.38;;;22.90;44.80;;;;;;5063067;27;43505;-58
2022/04/24 11:53:01;;;;;;;1.45;1.35;;;22.90;44.80;;;;;;5073233;27;43804;-59
2022/04/24 11:58:15;;;;;;;1.50;1.30;;;22.90;44.90;;;;;;5067082;28;43513;-58
2022/04/24 12:00:45;;;;;;;2.22;1.50;;;22.90;44.90;;;;;;5070324;28;43451;-57
2022/04/24 12:03:14;;;;;;;1.55;1.35;;;23.00;45.00;;;;;;5066196;27;43860;-59
2022/04/24 12:05:43;;;;;;;1.42;1.30;;;22.90;44.90;;;;;;5068903;28;43695;-58
2022/04/24 12:08:12;;;;;;;1.42;1.20;;;23.00;45.00;;;;;;5055833;28;43689;-58
2022/04/24 12:10:46;;;;;;;1.50;1.40;;;23.00;45.00;;;;;;5065131;28;43618;-59
2022/04/24 12:13:21;;;;;;;2.33;1.30;;;23.00;45.60;;;;;;5066797;27;45117;-57
2022/04/24 12:15:50;;;;;;;1.92;1.40;;;23.00;45.00;;;;;;5063933;28;43905;-58
2022/04/24 12:18:23;;;;;;;1.52;1.13;;;23.00;45.60;;;;;;5067095;27;43443;-58
2022/04/24 12:20:51;;;;;;;1.23;1.13;;;23.00;44.90;;;;;;5061660;28;43519;-57
2022/04/24 12:23:19;;;;;;;1.50;1.30;;;23.00;44.90;;;;;;5060989;28;44336;-59
2022/04/24 12:25:53;;;;;;;1.30;1.20;;;23.10;45.00;;;;;;5063037;28;43435;-59
2022/04/24 12:28:35;;;;;;;1.73;1.20;;;23.10;45.00;;;;;;5060797;28;43470;-59
2022/04/24 12:31:26;;;;;;;1.38;1.27;;;23.00;45.10;;;;;;5063857;28;43726;-58
2022/04/24 12:33:58;;;;;;;1.10;1.10;;;23.00;45.10;;;;;;5067016;27;44044;-58
2022/04/24 12:36:27;;;;;;;1.40;1.30;;;23.10;45.20;;;;;;5077807;27;43501;-57
2022/04/24 12:39:06;;;;;;;1.60;1.30;;;23.00;45.30;;;;;;5066761;28;43546;-58
2022/04/24 12:41:37;;;;;;;1.92;1.20;;;23.10;45.20;;;;;;5067277;28;43437;-59
2022/04/24 12:44:06;;;;;;;0.90;0.90;;;23.00;45.10;;;;;;5065242;27;45138;-58
2022/04/24 12:46:34;;;;;;;1.25;1.15;;;23.10;45.30;;;;;;5063566;28;43541;-58
2022/04/24 12:49:03;;;;;;;1.40;1.30;;;23.00;45.20;;;;;;5064030;28;43534;-59
2022/04/24 12:51:31;;;;;;;1.58;1.33;;;23.00;45.20;;;;;;5065852;28;43644;-58
2022/04/24 12:54:02;;;;;;;2.75;1.20;;;23.00;45.30;;;;;;5084111;27;44032;-58
2022/04/24 12:56:30;;;;;;;1.30;1.10;;;23.00;45.00;;;;;;5059557;28;43558;-59
2022/04/24 12:58:58;;;;;;;1.40;1.30;;;23.00;45.10;;;;;;5064945;28;43468;-59
2022/04/24 13:01:25;;;;;;;2.67;1.50;;;23.00;45.10;;;;;;5069427;28;43639;-58
2022/04/24 13:03:55;;;;;;;2.03;1.20;;;23.00;45.10;;;;;;5066724;28;44688;-58
2022/04/24 13:06:25;;;;;;;1.40;1.30;;;23.00;45.10;;;;;;5062764;28;43463;-59
2022/04/24 13:08:55;;;;;;;1.55;1.10;;;23.00;45.00;;;;;;5057484;28;43507;-57